Hartland Point — ZIQS6 — position and weather

sailwx.info

Track history (hours):
 
Tides and Currents Weather Stations Pressure Air Temp Water Temp Dewpoint Dewpoint Depression Visibility Wind Speed Wind Dir Waves Ship Positions

Hartland Point

Last reported at 2015-Sep-05 09:17 UTC. Time now 2015-Sep-05 12:22 UTC.
Position N 50°54' W 001°25'.

Length 193 m; draft 5.2 m.

Type: Ship. MMSI: 235505000.

Date/timePositionNaut miles runAvg speedWind from/ knotsBaromVisibWave heightAir tempDewpointWater temp
2015-Sep-05 09:17N 50°54' W 001°25'0 0.0
2015-Sep-05 03:15N 50°54' W 001°25'0 0.0
2015-Sep-05 02:33N 50°54' W 001°25'0 0.0
2015-Sep-05 01:29N 50°54' W 001°25'0 0.0
2015-Sep-05 00:32N 50°54' W 001°25'0 0.0
2015-Sep-04 23:13N 50°54' W 001°25'0 0.0
2015-Sep-04 22:31N 50°54' W 001°25'0 0.0
2015-Sep-04 21:33N 50°54' W 001°25'0 0.0
2015-Sep-04 20:33N 50°54' W 001°25'0 0.0
2015-Sep-04 19:29N 50°54' W 001°25'0 0.0
2015-Sep-04 18:23N 50°54' W 001°25'0 0.0
2015-Sep-04 15:25N 50°54' W 001°25'0 0.0
2015-Sep-04 13:09N 50°54' W 001°25'0 0.0
2015-Sep-04 12:33N 50°54' W 001°25'0 0.0
2015-Sep-04 07:12N 50°54' W 001°25'0 0.0
2015-Sep-04 06:12N 50°54' W 001°25'0 0.0
2015-Sep-04 05:29N 50°54' W 001°25'0 0.0
2015-Sep-04 03:29N 50°54' W 001°25'0 0.0
2015-Sep-04 02:28N 50°54' W 001°25'0 0.0
2015-Sep-04 01:19N 50°54' W 001°25'0 0.0
2015-Sep-03 23:24N 50°54' W 001°25'0 0.0
2015-Sep-03 22:29N 50°54' W 001°25'0 0.0
2015-Sep-03 20:26N 50°54' W 001°25'0 0.1
2015-Sep-03 15:33N 50°54' W 001°25'3 2.7
2015-Sep-03 14:33N 50°52' W 001°22'5 5.2
2015-Sep-03 13:33N 50°47' W 001°19'3 3.4
2015-Sep-03 12:33N 50°50' W 001°20'5 4.1
2015-Sep-03 11:25N 50°54' W 001°25'0 0.0
2015-Sep-03 10:30N 50°54' W 001°25'0 0.0
2015-Sep-03 08:29N 50°54' W 001°25'0 0.0
2015-Sep-03 07:23N 50°54' W 001°25'0 0.0
2015-Sep-03 06:23N 50°54' W 001°25'0 0.0
2015-Sep-03 05:31N 50°54' W 001°25'0 0.0
2015-Sep-03 04:31N 50°54' W 001°25'0 0.0
2015-Sep-03 03:30N 50°54' W 001°25'0 0.0
2015-Sep-03 02:30N 50°54' W 001°25'0 0.0
2015-Sep-03 01:26N 50°54' W 001°25'0 0.0
2015-Sep-03 00:29N 50°54' W 001°25'0 0.0
2015-Sep-02 22:07N 50°54' W 001°25'0 0.0
2015-Sep-02 07:25N 50°54' W 001°25'0 0.0
2015-Sep-02 06:03N 50°54' W 001°25'0 0.0
2015-Sep-02 05:18N 50°54' W 001°25'0 0.0
2015-Sep-02 04:20N 50°54' W 001°25'0 0.0
2015-Sep-02 02:19N 50°54' W 001°25'0 0.0
2015-Sep-02 01:28N 50°54' W 001°25'0 0.0
2015-Sep-02 00:25N 50°54' W 001°25'0 0.0
2015-Sep-01 22:30N 50°54' W 001°25'0 0.0
2015-Sep-01 14:32N 50°54' W 001°25'0 0.0
2015-Sep-01 06:32N 50°54' W 001°25'0 0.0
2015-Sep-01 05:25N 50°54' W 001°25'2 2.0
2015-Sep-01 04:28N 50°52' W 001°23'7 7.9
2015-Sep-01 03:33N 50°48' W 001°14'9 8.5
2015-Sep-01 02:33N 50°44' W 001°02'6 6.4
2015-Sep-01 01:33N 50°37' W 001°01'2 1.8
2015-Sep-01 00:31N 50°37' W 001°04'0 0.1
2015-Aug-31 23:31N 50°37' W 001°04'0 0.0
2015-Aug-31 22:33N 50°37' W 001°04'0 0.0
2015-Aug-31 21:33N 50°37' W 001°04'0 0.0
2015-Aug-31 20:32N 50°37' W 001°04'0 0.0
2015-Aug-31 19:32N 50°37' W 001°04'0 0.1
2015-Aug-31 18:32N 50°37' W 001°04'0 0.0
2015-Aug-31 17:31N 50°37' W 001°04'0 0.0
2015-Aug-31 16:31N 50°37' W 001°05'0 0.0
2015-Aug-31 15:33N 50°37' W 001°05'0 0.0
2015-Aug-31 14:33N 50°37' W 001°05'0 0.0
2015-Aug-31 13:32N 50°37' W 001°04'0 0.1
2015-Aug-31 12:32N 50°37' W 001°04'0 0.0
2015-Aug-31 11:32N 50°37' W 001°04'0 0.1
2015-Aug-31 10:31N 50°37' W 001°04'0 0.0
2015-Aug-31 09:31N 50°37' W 001°04'0 0.0
2015-Aug-31 08:33N 50°37' W 001°04'0 0.0
2015-Aug-31 07:33N 50°37' W 001°04'0 0.1
2015-Aug-31 06:32N 50°37' W 001°04'0 0.1
2015-Aug-31 05:29N 50°37' W 001°04'0 0.0
2015-Aug-31 04:32N 50°37' W 001°04'0 0.0
2015-Aug-31 03:31N 50°37' W 001°04'0 0.0
2015-Aug-31 02:31N 50°37' W 001°04'0 0.0
2015-Aug-31 01:33N 50°37' W 001°04'0 0.0
2015-Aug-31 00:33N 50°37' W 001°04'0 0.0
2015-Aug-30 23:32N 50°37' W 001°04'0 0.1
2015-Aug-30 22:32N 50°37' W 001°04'0 0.0
2015-Aug-30 21:32N 50°37' W 001°04'0 0.0
2015-Aug-30 20:31N 50°37' W 001°04'4 4.6
2015-Aug-30 19:34N 50°36' W 000°57'8 7.9
2015-Aug-30 18:33N 50°36' W 000°45'10 9.8
2015-Aug-30 17:33N 50°36' W 000°29'2411.9
2015-Aug-30 15:31N 50°35' E 000°09'1212.6
2015-Aug-30 14:33N 50°37' E 000°27'1211.8
2015-Aug-30 13:34N 50°40' E 000°45'1010.5
2015-Aug-30 12:34N 50°46' E 000°59'10 8.1
2015-Aug-30 11:16N 50°53' E 001°11'7 9.5
2015-Aug-30 10:32N 50°57' E 001°21'1111.1
2015-Aug-30 09:34N 51°05' E 001°32'1413.5
2015-Aug-30 08:33N 51°14' E 001°47'1413.6
2015-Aug-30 07:33N 51°26' E 001°58'1312.7
2015-Aug-30 06:33N 51°36' E 002°11'2311.0
2015-Aug-30 04:26N 51°54' E 002°35'9 9.7
2015-Aug-30 03:32N 52°01' E 002°44'10 9.2
2015-Aug-30 02:27N 52°08' E 002°55'8 8.9
2015-Aug-30 01:32N 52°14' E 003°03'9 9.3
2015-Aug-30 00:33N 52°22' E 003°12'7 7.4
2015-Aug-29 23:33N 52°28' E 003°19'1413.5
2015-Aug-29 22:33N 52°39' E 003°33'1615.9
2015-Aug-29 21:34N 52°51' E 003°49'1615.8
2015-Aug-29 20:34N 53°03' E 004°07'1515.2
2015-Aug-29 19:34N 53°13' E 004°25'1414.4
2015-Aug-29 18:33N 53°27' E 004°33'1313.3
2015-Aug-29 17:33N 53°32' E 004°54'1312.9
2015-Aug-29 16:33N 53°36' E 005°15'1413.7
2015-Aug-29 15:33N 53°40' E 005°37'1514.9
2015-Aug-29 14:33N 53°45' E 006°01'1312.9
2015-Aug-29 13:32N 53°39' E 006°21'1717.2
2015-Aug-29 12:34N 53°31' E 006°46'1616.2
2015-Aug-29 11:33N 53°20' E 007°05'3 2.9
2015-Aug-29 10:32N 53°20' E 007°10'0 0.0
2015-Aug-29 09:32N 53°20' E 007°10'0 0.0
2015-Aug-29 08:31N 53°20' E 007°10'0 0.0
2015-Aug-29 07:31N 53°20' E 007°10'0 0.0
2015-Aug-29 06:33N 53°20' E 007°10'0 0.0
2015-Aug-29 05:33N 53°20' E 007°10'2 2.2
2015-Aug-29 04:33N 53°20' E 007°07'1212.2
2015-Aug-29 03:33N 53°28' E 006°51'1616.1
2015-Aug-29 02:33N 53°37' E 006°29'1514.7
2015-Aug-29 01:33N 53°39' E 006°04'1414.3
2015-Aug-29 00:33N 53°37' E 005°40'1212.3
2015-Aug-28 23:33N 53°33' E 005°21'1312.6
2015-Aug-28 22:33N 53°28' E 005°00'1211.9
2015-Aug-28 21:33N 53°24' E 004°42'2411.6
2015-Aug-28 19:28N 53°02' E 004°23'1111.7
2015-Aug-28 18:33N 52°53' E 004°16'1211.9
2015-Aug-28 17:33N 52°42' E 004°06'6913.3
2015-Aug-28 12:22N 51°54' E 002°45'1214.1
2015-Aug-28 11:32N 51°45' E 002°33'1515.4
2015-Aug-28 10:33N 51°33' E 002°18'1414.4
2015-Aug-28 09:33N 51°20' E 002°09'1110.7
2015-Aug-28 08:34N 51°11' E 001°59'9 8.8
2015-Aug-28 07:33N 51°07' E 001°47'8 8.4
2015-Aug-28 06:34N 51°01' E 001°37'9 8.7
2015-Aug-28 05:34N 50°54' E 001°29'9 9.1
2015-Aug-28 04:33N 50°45' E 001°24'  
Track history (hours):
 
Tides and Currents Weather Stations Pressure Air Temp Water Temp Dewpoint Dewpoint Depression Visibility Wind Speed Wind Dir Waves Ship Positions

Hartland Point

Last reported at 2015-Sep-05 09:17 UTC. Time now 2015-Sep-05 12:22 UTC.
Position N 50°54' W 001°25'.

Length 193 m; draft 5.2 m.

Type: Ship. MMSI: 235505000.

Date/timePositionNaut miles runAvg speedWind from/ knotsBaromVisibWave heightAir tempDewpointWater temp
2015-Sep-05 09:17N 50°54' W 001°25'0 0.0
2015-Sep-05 03:15N 50°54' W 001°25'0 0.0
2015-Sep-05 02:33N 50°54' W 001°25'0 0.0
2015-Sep-05 01:29N 50°54' W 001°25'0 0.0
2015-Sep-05 00:32N 50°54' W 001°25'0 0.0
2015-Sep-04 23:13N 50°54' W 001°25'0 0.0
2015-Sep-04 22:31N 50°54' W 001°25'0 0.0
2015-Sep-04 21:33N 50°54' W 001°25'0 0.0
2015-Sep-04 20:33N 50°54' W 001°25'0 0.0
2015-Sep-04 19:29N 50°54' W 001°25'0 0.0
2015-Sep-04 18:23N 50°54' W 001°25'0 0.0
2015-Sep-04 15:25N 50°54' W 001°25'0 0.0
2015-Sep-04 13:09N 50°54' W 001°25'0 0.0
2015-Sep-04 12:33N 50°54' W 001°25'0 0.0
2015-Sep-04 07:12N 50°54' W 001°25'0 0.0
2015-Sep-04 06:12N 50°54' W 001°25'0 0.0
2015-Sep-04 05:29N 50°54' W 001°25'0 0.0
2015-Sep-04 03:29N 50°54' W 001°25'0 0.0
2015-Sep-04 02:28N 50°54' W 001°25'0 0.0
2015-Sep-04 01:19N 50°54' W 001°25'0 0.0
2015-Sep-03 23:24N 50°54' W 001°25'0 0.0
2015-Sep-03 22:29N 50°54' W 001°25'0 0.0
2015-Sep-03 20:26N 50°54' W 001°25'0 0.1
2015-Sep-03 15:33N 50°54' W 001°25'3 2.7
2015-Sep-03 14:33N 50°52' W 001°22'5 5.2
2015-Sep-03 13:33N 50°47' W 001°19'3 3.4
2015-Sep-03 12:33N 50°50' W 001°20'5 4.1
2015-Sep-03 11:25N 50°54' W 001°25'0 0.0
2015-Sep-03 10:30N 50°54' W 001°25'0 0.0
2015-Sep-03 08:29N 50°54' W 001°25'0 0.0
2015-Sep-03 07:23N 50°54' W 001°25'0 0.0
2015-Sep-03 06:23N 50°54' W 001°25'0 0.0
2015-Sep-03 05:31N 50°54' W 001°25'0 0.0
2015-Sep-03 04:31N 50°54' W 001°25'0 0.0
2015-Sep-03 03:30N 50°54' W 001°25'0 0.0
2015-Sep-03 02:30N 50°54' W 001°25'0 0.0
2015-Sep-03 01:26N 50°54' W 001°25'0 0.0
2015-Sep-03 00:29N 50°54' W 001°25'0 0.0
2015-Sep-02 22:07N 50°54' W 001°25'0 0.0
2015-Sep-02 07:25N 50°54' W 001°25'0 0.0
2015-Sep-02 06:03N 50°54' W 001°25'0 0.0
2015-Sep-02 05:18N 50°54' W 001°25'0 0.0
2015-Sep-02 04:20N 50°54' W 001°25'0 0.0
2015-Sep-02 02:19N 50°54' W 001°25'0 0.0
2015-Sep-02 01:28N 50°54' W 001°25'0 0.0
2015-Sep-02 00:25N 50°54' W 001°25'0 0.0
2015-Sep-01 22:30N 50°54' W 001°25'0 0.0
2015-Sep-01 14:32N 50°54' W 001°25'0 0.0
2015-Sep-01 06:32N 50°54' W 001°25'0 0.0
2015-Sep-01 05:25N 50°54' W 001°25'2 2.0
2015-Sep-01 04:28N 50°52' W 001°23'7 7.9
2015-Sep-01 03:33N 50°48' W 001°14'9 8.5
2015-Sep-01 02:33N 50°44' W 001°02'6 6.4
2015-Sep-01 01:33N 50°37' W 001°01'2 1.8
2015-Sep-01 00:31N 50°37' W 001°04'0 0.1
2015-Aug-31 23:31N 50°37' W 001°04'0 0.0
2015-Aug-31 22:33N 50°37' W 001°04'0 0.0
2015-Aug-31 21:33N 50°37' W 001°04'0 0.0
2015-Aug-31 20:32N 50°37' W 001°04'0 0.0
2015-Aug-31 19:32N 50°37' W 001°04'0 0.1
2015-Aug-31 18:32N 50°37' W 001°04'0 0.0
2015-Aug-31 17:31N 50°37' W 001°04'0 0.0
2015-Aug-31 16:31N 50°37' W 001°05'0 0.0
2015-Aug-31 15:33N 50°37' W 001°05'0 0.0
2015-Aug-31 14:33N 50°37' W 001°05'0 0.0
2015-Aug-31 13:32N 50°37' W 001°04'0 0.1
2015-Aug-31 12:32N 50°37' W 001°04'0 0.0
2015-Aug-31 11:32N 50°37' W 001°04'0 0.1
2015-Aug-31 10:31N 50°37' W 001°04'0 0.0
2015-Aug-31 09:31N 50°37' W 001°04'0 0.0
2015-Aug-31 08:33N 50°37' W 001°04'0 0.0
2015-Aug-31 07:33N 50°37' W 001°04'0 0.1
2015-Aug-31 06:32N 50°37' W 001°04'0 0.1
2015-Aug-31 05:29N 50°37' W 001°04'0 0.0
2015-Aug-31 04:32N 50°37' W 001°04'0 0.0
2015-Aug-31 03:31N 50°37' W 001°04'0 0.0
2015-Aug-31 02:31N 50°37' W 001°04'0 0.0
2015-Aug-31 01:33N 50°37' W 001°04'0 0.0
2015-Aug-31 00:33N 50°37' W 001°04'0 0.0
2015-Aug-30 23:32N 50°37' W 001°04'0 0.1
2015-Aug-30 22:32N 50°37' W 001°04'0 0.0
2015-Aug-30 21:32N 50°37' W 001°04'0 0.0
2015-Aug-30 20:31N 50°37' W 001°04'4 4.6
2015-Aug-30 19:34N 50°36' W 000°57'8 7.9
2015-Aug-30 18:33N 50°36' W 000°45'10 9.8
2015-Aug-30 17:33N 50°36' W 000°29'2411.9
2015-Aug-30 15:31N 50°35' E 000°09'1212.6
2015-Aug-30 14:33N 50°37' E 000°27'1211.8
2015-Aug-30 13:34N 50°40' E 000°45'1010.5
2015-Aug-30 12:34N 50°46' E 000°59'10 8.1
2015-Aug-30 11:16N 50°53' E 001°11'7 9.5
2015-Aug-30 10:32N 50°57' E 001°21'1111.1
2015-Aug-30 09:34N 51°05' E 001°32'1413.5
2015-Aug-30 08:33N 51°14' E 001°47'1413.6
2015-Aug-30 07:33N 51°26' E 001°58'1312.7
2015-Aug-30 06:33N 51°36' E 002°11'2311.0
2015-Aug-30 04:26N 51°54' E 002°35'9 9.7
2015-Aug-30 03:32N 52°01' E 002°44'10 9.2
2015-Aug-30 02:27N 52°08' E 002°55'8 8.9
2015-Aug-30 01:32N 52°14' E 003°03'9 9.3
2015-Aug-30 00:33N 52°22' E 003°12'7 7.4
2015-Aug-29 23:33N 52°28' E 003°19'1413.5
2015-Aug-29 22:33N 52°39' E 003°33'1615.9
2015-Aug-29 21:34N 52°51' E 003°49'1615.8
2015-Aug-29 20:34N 53°03' E 004°07'1515.2
2015-Aug-29 19:34N 53°13' E 004°25'1414.4
2015-Aug-29 18:33N 53°27' E 004°33'1313.3
2015-Aug-29 17:33N 53°32' E 004°54'1312.9
2015-Aug-29 16:33N 53°36' E 005°15'1413.7
2015-Aug-29 15:33N 53°40' E 005°37'1514.9
2015-Aug-29 14:33N 53°45' E 006°01'1312.9
2015-Aug-29 13:32N 53°39' E 006°21'1717.2
2015-Aug-29 12:34N 53°31' E 006°46'1616.2
2015-Aug-29 11:33N 53°20' E 007°05'3 2.9
2015-Aug-29 10:32N 53°20' E 007°10'0 0.0
2015-Aug-29 09:32N 53°20' E 007°10'0 0.0
2015-Aug-29 08:31N 53°20' E 007°10'0 0.0
2015-Aug-29 07:31N 53°20' E 007°10'0 0.0
2015-Aug-29 06:33N 53°20' E 007°10'0 0.0
2015-Aug-29 05:33N 53°20' E 007°10'2 2.2
2015-Aug-29 04:33N 53°20' E 007°07'1212.2
2015-Aug-29 03:33N 53°28' E 006°51'1616.1
2015-Aug-29 02:33N 53°37' E 006°29'1514.7
2015-Aug-29 01:33N 53°39' E 006°04'1414.3
2015-Aug-29 00:33N 53°37' E 005°40'1212.3
2015-Aug-28 23:33N 53°33' E 005°21'1312.6
2015-Aug-28 22:33N 53°28' E 005°00'1211.9
2015-Aug-28 21:33N 53°24' E 004°42'2411.6
2015-Aug-28 19:28N 53°02' E 004°23'1111.7
2015-Aug-28 18:33N 52°53' E 004°16'1211.9
2015-Aug-28 17:33N 52°42' E 004°06'6913.3
2015-Aug-28 12:22N 51°54' E 002°45'1214.1
2015-Aug-28 11:32N 51°45' E 002°33'1515.4
2015-Aug-28 10:33N 51°33' E 002°18'1414.4
2015-Aug-28 09:33N 51°20' E 002°09'1110.7
2015-Aug-28 08:34N 51°11' E 001°59'9 8.8
2015-Aug-28 07:33N 51°07' E 001°47'8 8.4
2015-Aug-28 06:34N 51°01' E 001°37'9 8.7
2015-Aug-28 05:34N 50°54' E 001°29'9 9.1
2015-Aug-28 04:33N 50°45' E 001°24'  

Dump ship's entire track history